x

New York Harbor Entrance - 15 Nm Se Of Breezy Point , Ny (44065) Wave Buoy

6:50pm - Fri 6th Mar 2015 All times are EST. -5 hours from GMT.

  • Sig Wave height 1.6ft
  • Swell Direction
  • Peak Period 9s
  • Average Period 5s
  • Wind
    7mph, 9mph gusts
  • Sea Temp 38°f
  • Air Temp 24°f
  • Sea Pressure 1030.4mb
  • New York Harbor Entrance - 15 Nm Se Of Breezy Point , Ny
  • New York Harbor Entrance - 15 Nm Se Of Breezy Point , Ny

More Historic Weather Station data

Upgrade to MSW Pro to gain access to the past 30 days of data for over 8000 Wavebouys and Weather Stations around the globe.

Join Pro

Comparision Forecast

View Surf forecast
   
Fri 03/06 6:50pm 1.6ft 9s 5s 7 9 mph 1030.4mb 38f 24f
5:50pm 1.6ft 8s 5s 7 9 mph 1030.7mb 38f 23f
4:50pm 1.6ft 10s 5s 2 4 mph 1031mb 38f 25f
3:50pm 2ft 9s 5s 4
mph
1031.6mb 38f 23f
2:50pm 1.6ft 7s 5s 4 7 mph 1032mb 38f 22f
1:50pm 1.6ft 7s 5s 7 11 mph 1032.3mb 38f 21f
12:50pm 2ft 11s 4s 7 9 mph 1033.8mb 38f 20f
11:50am 2ft 11s 4s 7 11 mph 1033.8mb 38f 20f
10:50am 2.5ft 4s 4s 11 16 mph 1034.3mb 37f 19f
9:50am 2.5ft 4s 4s 13 18 mph 1034.2mb 37f 19f
8:50am 2.5ft 4s 4s 20 25 mph 1033.9mb 37f 18f
7:50am 3ft 4s 4s 22 27 mph 1033.5mb 37f 19f
6:50am 3ft 4s 4s 22 29 mph 1032.6mb 38f 18f
5:50am 2.5ft 4s 4s 22 29 mph 1031.9mb 38f 19f
4:50am 2.5ft 4s 4s 18 22 mph 1031.5mb 37f 19f
3:50am 3ft 4s 4s 22 29 mph 1030.3mb 37f 19f
2:50am 3.5ft 4s 4s 22 29 mph 1029.4mb 37f 20f
1:50am 3.5ft 5s 4s 25 31 mph 1028.9mb 37f 22f
12:50am 4ft 4s 4s 25 31 mph 1028.1mb 38f 23f
Thu 03/05 11:50pm 3.5ft 4s 4s 27 31 mph 1027.3mb 38f 25f
10:50pm 3.5ft 4s 4s 22 27 mph 1026.4mb 38f 26f
9:50pm 2.5ft 4s 4s 22 29 mph 1025.9mb 38f 26f
8:50pm 3ft 4s 4s 20 25 mph 1025.2mb 38f 25f
7:50pm 2.5ft 4s 4s 22 27 mph 1024.2mb 38f 25f
6:50pm 3ft 4s  -  22 25 mph 1023.6mb 38f 25f
5:50pm 2.5ft 9s 4s 16 20 mph 1022mb 38f 24f
4:50pm 2.5ft 4s 4s 18 22 mph 1021.7mb 38f 24f
3:50pm 3ft 4s 4s 16 20 mph 1021.7mb 38f 24f
2:50pm 3.5ft 4s 4s 20 22 mph 1021.3mb 38f 24f
1:50pm 3ft 4s 4s 22 27 mph 1019.8mb 38f 26f
12:50pm 2.5ft 8s 4s 11 13 mph 1021.2mb 38f 28f
11:50am 3ft 4s 4s 16 20 mph 1020.4mb 38f 28f
10:50am 3ft 3s 4s 22 25 mph 1019mb 38f 29f
9:50am 2.5ft 8s 4s 25 27 mph 1019mb 38f 30f
8:50am 3ft 9s 5s 16 18 mph 1018.3mb 37f 33f
7:50am 3ft 9s 5s 16 18 mph 1017.3mb 38f 33f
6:50am 3.5ft 10s 5s 16 18 mph 1015.8mb 38f 34f
5:50am 3.5ft 9s 5s 18 20 mph 1015.7mb 38f 34f
4:50am 3.5ft 9s 5s 20 25 mph 1014.3mb 38f 37f
3:50am 3.5ft 8s 6s 13 16 mph 1012.7mb 38f 38f
2:50am 3.5ft 9s 6s 13 16 mph 1013.1mb 38f 38f
1:50am 3.5ft 8s 7s 11 13 mph 1012.7mb 38f 39f
12:50am 3.5ft 10s 7s 11
mph
1012.7mb 38f 40f
Wed 03/04 11:50pm 3.5ft 8s 7s 9
mph
1012.6mb 38f 40f
10:50pm 3.5ft 8s 6s 7 9 mph 1013mb 38f 40f
9:50pm 4ft 7s 7s 7 9 mph 1013mb 38f 40f
8:50pm 4ft 9s 6s 9
mph
1012.4mb 38f 40f
7:50pm 4ft 9s 6s 9
mph
1011.6mb 38f 39f
6:50pm 4.5ft 8s 6s 9 11 mph 1012.3mb 38f 40f
5:50pm 4.5ft 8s 6s 11
mph
1012.2mb 38f 40f
4:50pm 5ft 8s 6s 9 11 mph 1011.8mb 38f 39f
3:50pm 4.5ft 9s 6s 11 13 mph 1012.8mb 38f 39f
2:50pm 5ft 9s 7s 11 13 mph 1010.3mb 38f 38f
1:50pm 5.5ft 10s 7s 11 13 mph 1011mb 38f 38f
12:50pm 6ft 10s 7s 9 11 mph 1011.3mb 38f 38f
11:50am 6ft 10s 7s 7 9 mph 1011.9mb 38f 38f
10:50am 5.5ft 8s 7s 9 11 mph 1012.2mb 38f 38f
9:50am 5ft 7s 6s 13 16 mph 1011.5mb 38f 38f
8:50am 4.5ft 7s 6s 11 13 mph 1011.7mb 38f 38f
7:50am 4ft 7s 6s 11 13 mph 1010.5mb 38f 38f
6:50am 3.5ft 6s 5s 11 13 mph 1009.6mb 38f 37f
5:50am 3.5ft 6s 5s 11 13 mph 1009.2mb 38f 37f
4:50am 3.5ft 6s 5s 9 11 mph 1008.3mb 38f 38f
3:50am 3.5ft 6s 5s 13 16 mph 1007.4mb 38f 38f
2:50am 3.5ft 5s 4s 16 18 mph 1008.2mb 38f 38f
1:50am 3.5ft 5s 4s 18 22 mph 1009.2mb 38f 37f
12:50am 2.5ft 5s 4s 20 25 mph 1008.9mb 38f 37f
Tue 03/03 11:50pm 2.5ft 4s 4s 9 11 mph 1011mb 38f 36f
10:50pm 2ft 4s 4s 11 13 mph 1012.8mb 38f 37f
9:50pm 2ft 4s 4s 11 13 mph 1014mb 38f 37f
8:50pm 2ft 4s 4s 16 18 mph 1015.4mb 38f 36f
7:50pm 2ft 3s 4s 18 20 mph 1017.3mb 38f 35f
6:50pm 2ft 3s 4s 11 13 mph 1019.7mb 38f 33f
5:50pm 2.5ft 4s 4s 16 18 mph 1021.3mb 38f 32f
4:50pm 2ft 3s 3s 18 22 mph 1022.5mb 38f 32f
3:50pm 1.6ft 3s 3s 16 18 mph 1024.3mb 38f 33f
2:50pm 1.3ft 9s 3s 13 16 mph 1025.7mb 38f 32f
1:50pm 1ft 8s 4s 13 16 mph 1026.6mb 38f 31f
12:50pm 1ft 9s 5s 11 13 mph 1028.6mb 38f 30f
11:50am 0.7ft  -  6s 9 11 mph 1029.5mb 38f 29f
10:50am 0.7ft  -  6s 9 11 mph 1030.1mb 38f 29f
9:50am 0.7ft  -  5s 7 13 mph 1030.4mb 38f 29f
8:50am 0.7ft  -  5s 4
mph
1031.6mb 38f 29f
7:50am 1ft 8s 4s 4 7 mph 1030.8mb 38f 28f
6:50am 1ft 8s 4s 4 9 mph 1030.7mb 38f 28f
5:50am 1.3ft 3s 3s 9 11 mph 1029.8mb 38f 28f
4:50am 1.3ft 9s 3s 11 13 mph 1029.4mb 38f 28f
3:50am 1.6ft 3s 3s 13 16 mph 1029.1mb 38f 29f
2:50am 2ft 4s 3s 13 18 mph 1028.8mb 38f 29f
1:50am 2.5ft 4s 4s 18 22 mph 1029.2mb 38f 29f